METAR Data
IDs: Format: Raw Decoded Include TAF

Data at: 0110 UTC 25 Mar 2019

KMUT 250055Z AUTO 05011KT 10SM OVC009 09/07 A3005 RMK AO2
KMUT 250035Z AUTO 06011KT 9SM OVC009 09/08 A3004 RMK AO2
KMUT 250015Z AUTO 05012KT 8SM OVC011 10/08 A3002 RMK AO2
KMUT 242355Z AUTO 04012KT 9SM OVC013 10/08 A3001 RMK AO2
KMUT 242335Z AUTO 04010KT 9SM OVC014 10/08 A3000 RMK AO2
KMUT 242315Z AUTO 06010KT 9SM OVC015 10/08 A3001 RMK AO2
KMUT 242255Z AUTO 07007KT 8SM OVC016 11/08 A3001 RMK AO2
KMUT 242235Z AUTO 07007KT 8SM OVC018 11/08 A3001 RMK AO2
KMUT 242215Z AUTO 07008KT 8SM OVC020 11/08 A3001 RMK AO2
KMUT 242155Z AUTO 07007KT 9SM OVC018 11/08 A3000 RMK AO2
KMUT 242135Z AUTO 07007KT 9SM OVC017 11/08 A3001 RMK AO2
KMUT 242115Z AUTO 09005KT 10SM OVC018 12/08 A3001 RMK AO2
KMUT 242055Z AUTO 08005KT 10SM OVC018 12/08 A3001 RMK AO2
KMUT 242035Z AUTO 10005KT 10SM OVC018 12/08 A3000 RMK AO2
KMUT 242015Z AUTO 08005KT 10SM OVC017 12/08 A3000 RMK AO2
KMUT 241955Z AUTO VRB04KT 10SM OVC016 13/08 A2999 RMK AO2
KMUT 241935Z AUTO VRB04KT 10SM OVC015 11/08 A2999 RMK AO2
KMUT 241915Z AUTO 13004KT 10SM OVC015 11/08 A3000 RMK AO2
KMUT 241855Z AUTO VRB05KT 10SM OVC015 12/08 A3000 RMK AO2
KMUT 241835Z AUTO 14004KT 10SM OVC014 11/07 A3001 RMK AO2
KMUT 241815Z AUTO 18005KT 10SM OVC014 11/08 A3002 RMK AO2
KMUT 241755Z AUTO 14006KT 10SM OVC013 11/07 A3002 RMK AO2
KMUT 241735Z AUTO 15007KT 10SM OVC013 10/07 A3003 RMK AO2
KMUT 241715Z AUTO 12010KT 10SM BKN013 OVC027 10/07 A3003 RMK AO2
KMUT 241655Z AUTO 13007KT 10SM BKN012 OVC027 10/07 A3004 RMK AO2
KMUT 241635Z AUTO 14007G13KT 10SM BKN011 OVC027 10/07 A3005 RMK AO2
KMUT 241615Z AUTO 15009KT 10SM SCT011 OVC027 10/07 A3005 RMK AO2
KMUT 241555Z AUTO 14009KT 10SM BKN011 OVC027 09/07 A3005 RMK AO2
KMUT 241535Z AUTO 15008G14KT 10SM BKN011 OVC028 09/07 A3005 RMK AO2
KMUT 241515Z AUTO 14009KT 10SM SCT010 OVC028 09/07 A3005 RMK AO2
KMUT 241455Z AUTO 12009KT 9SM FEW011 OVC029 09/07 A3005 RMK AO2
KMUT 241435Z AUTO 13005KT 8SM OVC030 08/07 A3006 RMK AO2
KMUT 241415Z AUTO 12006KT 5SM BR 08/07 A3006 RMK AO2
KMUT 241355Z AUTO 12005KT 4SM BR OVC031 08/07 A3006 RMK AO2
KMUT 241335Z AUTO 12004KT 4SM BR 08/07 A3006 RMK AO2
KMUT 241315Z AUTO 13004KT 5SM BR 08/07 A3007 RMK AO2
KMUT 241255Z AUTO 13004KT 5SM BR 08/07 A3006 RMK AO2
KMUT 241235Z AUTO 13004KT 4SM BR 08/07 A3006 RMK AO2
KMUT 241215Z AUTO 12003KT 5SM BR 07/07 A3006 RMK AO2
KMUT 241155Z AUTO 12004KT 4SM BR FEW027 OVC037 07/07 A3006 RMK AO2
KMUT 241135Z AUTO 12005KT 4SM -UP FEW004 OVC039 07/06 A3006 RMK AO2
KMUT 241115Z AUTO 10004KT 9SM OVC040 07/06 A3007 RMK AO2
KMUT 241055Z AUTO 00000KT 9SM OVC043 07/06 A3007 RMK AO2
KMUT 241035Z AUTO 08004KT 10SM BKN044 OVC065 07/05 A3007 RMK AO2
KMUT 241015Z AUTO 12004KT 6SM BR SCT042 OVC060 07/05 A3008 RMK AO2
KMUT 240955Z AUTO 12003KT 9SM FEW027 SCT044 OVC065 07/05 A3008 RMK AO2
KMUT 240935Z AUTO 00000KT 7SM BKN026 BKN035 OVC060 08/05 A3008 RMK AO2
KMUT 240915Z AUTO 15004KT 10SM SCT027 BKN034 OVC047 08/04 A3008 RMK AO2
KMUT 240855Z AUTO 14003KT 10SM BKN032 BKN046 OVC055 08/04 A3009 RMK AO2
KMUT 240835Z AUTO 14004KT 10SM BKN032 OVC055 08/04 A3010 RMK AO2
KMUT 240815Z AUTO 13004KT 10SM BKN055 OVC065 08/03 A3010 RMK AO2
KMUT 240755Z AUTO 12003KT 10SM BKN055 OVC070 08/02 A3011 RMK AO2
KMUT 240735Z AUTO 13004KT 10SM SCT050 BKN065 OVC075 08/02 A3011 RMK AO2
KMUT 240715Z AUTO 13005KT 10SM FEW039 SCT055 OVC065 09/02 A3012 RMK AO2
KMUT 240655Z AUTO 12006KT 10SM OVC060 08/02 A3012 RMK AO2
KMUT 240635Z AUTO 15006KT 10SM BKN070 OVC075 08/01 A3013 RMK AO2
KMUT 240615Z AUTO 14004KT 10SM OVC075 08/01 A3013 RMK AO2
KMUT 240555Z AUTO 13005KT 10SM FEW040 SCT060 OVC075 09/01 A3013 RMK AO2
KMUT 240535Z AUTO 13005KT 10SM FEW043 BKN060 OVC075 08/01 A3014 RMK AO2
KMUT 240515Z AUTO 12005KT 10SM FEW044 BKN060 OVC075 09/01 A3014 RMK AO2
KMUT 240455Z AUTO 15003KT 10SM SCT041 BKN055 OVC065 09/01 A3015 RMK AO2
KMUT 240435Z AUTO 00000KT 10SM FEW040 BKN065 OVC075 08/01 A3015 RMK AO2
KMUT 240415Z AUTO 18003KT 10SM FEW047 OVC070 08/01 A3016 RMK AO2
KMUT 240355Z AUTO 15004KT 10SM BKN049 BKN075 OVC110 09/01 A3015 RMK AO2
KMUT 240335Z AUTO 15004KT 10SM BKN050 OVC110 09/01 A3015 RMK AO2
KMUT 240315Z AUTO 13004KT 10SM OVC050 09/01 A3015 RMK AO2
KMUT 240255Z AUTO 13007KT 10SM SCT050 OVC120 09/01 A3015 RMK AO2
KMUT 240235Z AUTO 14006KT 10SM SCT050 BKN120 09/00 A3016 RMK AO2
KMUT 240215Z AUTO 13007KT 10SM BKN050 BKN055 09/00 A3016 RMK AO2
KMUT 240155Z AUTO 12006KT 10SM OVC050 09/01 A3016 RMK AO2
KMUT 240135Z AUTO 14005KT 10SM OVC050 10/00 A3017 RMK AO2
KMUT 240115Z AUTO 14006KT 10SM OVC050 11/M00 A3016 RMK AO2
KMUT 240055Z AUTO 13005KT 10SM BKN050 BKN110 11/M00 A3016 RMK AO2
KMUT 240035Z AUTO 14005G12KT 10SM BKN110 11/M01 A3016 RMK AO2
KMUT 240015Z AUTO 14007KT 10SM OVC110 12/M01 A3016 RMK AO2
KMUT 232355Z AUTO 15008KT 10SM OVC110 12/M00 A3017 RMK AO2
KMUT 232335Z AUTO 14006KT 10SM OVC120 12/M01 A3017 RMK AO2
KMUT 232315Z AUTO 14010KT 10SM OVC120 12/M01 A3017 RMK AO2
KMUT 232255Z AUTO 16008G13KT 10SM OVC120 13/M01 A3018 RMK AO2
KMUT 232235Z AUTO 15011KT 10SM BKN120 13/M01 A3018 RMK AO2
KMUT 232215Z AUTO 17009KT 10SM CLR 13/M01 A3018 RMK AO2
KMUT 232155Z AUTO 16008G14KT 10SM CLR 13/M01 A3018 RMK AO2
KMUT 232135Z AUTO 16010KT 10SM CLR 13/M01 A3020 RMK AO2
KMUT 232115Z AUTO 18013KT 10SM CLR 13/M01 A3020 RMK AO2
KMUT 232055Z AUTO 15011G17KT 10SM CLR 13/M01 A3021 RMK AO2
KMUT 232035Z AUTO 15009G15KT 10SM CLR 13/M01 A3021 RMK AO2
KMUT 232015Z AUTO 16012G19KT 10SM CLR 14/M01 A3022 RMK AO2
KMUT 231955Z AUTO 19010G16KT 10SM CLR 14/M01 A3022 RMK AO2
KMUT 231935Z AUTO 17012KT 10SM CLR 13/M01 A3022 RMK AO2
KMUT 231915Z AUTO 16009G16KT 10SM CLR 13/M01 A3022 RMK AO2
KMUT 231855Z AUTO 15010G18KT 10SM CLR 12/M01 A3023 RMK AO2
KMUT 231835Z AUTO 17011G16KT 10SM CLR 12/M01 A3024 RMK AO2
KMUT 231815Z AUTO 15009G16KT 10SM CLR 11/M00 A3025 RMK AO2
KMUT 231755Z AUTO 18008KT 10SM CLR 11/M01 A3026 RMK AO2
KMUT 231735Z AUTO 16009G14KT 10SM CLR 11/M01 A3026 RMK AO2
KMUT 231715Z AUTO 17011KT 9SM CLR 11/M00 A3027 RMK AO2
KMUT 231655Z AUTO 15010KT 130V190 10SM FEW016 FEW022 SCT028 10/M01 A3028 RMK AO2
KMUT 231635Z AUTO 14006KT 10SM FEW016 FEW028 10/M00 A3028 RMK AO2
KMUT 231615Z AUTO 17008KT 10SM CLR 09/M00 A3029 RMK AO2
KMUT 231555Z AUTO 14007KT 10SM CLR 08/M00 A3029 RMK AO2
KMUT 231535Z AUTO 18009KT 10SM CLR 07/M01 A3030 RMK AO2
KMUT 231515Z AUTO 16009KT 10SM CLR 06/M01 A3030 RMK AO2
KMUT 231455Z AUTO 16007KT 10SM CLR 05/M01 A3030 RMK AO2
KMUT 231435Z AUTO 15006KT 10SM CLR 04/M01 A3031 RMK AO2
KMUT 231415Z AUTO 16005KT 10SM CLR 03/M01 A3031 RMK AO2
KMUT 231355Z AUTO 15007KT 10SM CLR 02/M02 A3031 RMK AO2
KMUT 231335Z AUTO 14004KT 10SM CLR 02/M02 A3031 RMK AO2
KMUT 231315Z AUTO 13004KT 10SM CLR 01/M02 A3032 RMK AO2